sensor_id;sensor_type;location;lat;lon;timestamp;temperature;humidity
2763;DHT22;1389;51.490;7.338;2023-01-06T00:01:32;11.30;99.30
2763;DHT22;1389;51.490;7.338;2023-01-06T00:03:59;11.40;99.30
2763;DHT22;1389;51.490;7.338;2023-01-06T00:06:27;11.40;99.10
2763;DHT22;1389;51.490;7.338;2023-01-06T00:08:58;11.40;98.90
2763;DHT22;1389;51.490;7.338;2023-01-06T00:11:25;11.40;98.50
2763;DHT22;1389;51.490;7.338;2023-01-06T00:13:51;11.40;98.30
2763;DHT22;1389;51.490;7.338;2023-01-06T00:16:19;11.30;97.70
2763;DHT22;1389;51.490;7.338;2023-01-06T00:18:46;11.30;97.80
2763;DHT22;1389;51.490;7.338;2023-01-06T00:21:13;11.30;97.80
2763;DHT22;1389;51.490;7.338;2023-01-06T00:23:40;11.30;97.70
2763;DHT22;1389;51.490;7.338;2023-01-06T00:26:10;11.30;97.70
2763;DHT22;1389;51.490;7.338;2023-01-06T00:28:36;11.30;97.30
2763;DHT22;1389;51.490;7.338;2023-01-06T00:31:14;11.30;97.30
2763;DHT22;1389;51.490;7.338;2023-01-06T00:33:41;11.30;97.60
2763;DHT22;1389;51.490;7.338;2023-01-06T00:36:08;11.20;97.40
2763;DHT22;1389;51.490;7.338;2023-01-06T00:38:35;11.20;97.60
2763;DHT22;1389;51.490;7.338;2023-01-06T00:41:09;11.20;97.80
2763;DHT22;1389;51.490;7.338;2023-01-06T00:43:56;11.20;97.60
2763;DHT22;1389;51.490;7.338;2023-01-06T00:46:22;11.20;97.50
2763;DHT22;1389;51.490;7.338;2023-01-06T00:48:51;11.20;97.60
2763;DHT22;1389;51.490;7.338;2023-01-06T00:51:17;11.20;97.40
2763;DHT22;1389;51.490;7.338;2023-01-06T00:53:43;11.20;97.50
2763;DHT22;1389;51.490;7.338;2023-01-06T00:56:09;11.20;97.60
2763;DHT22;1389;51.490;7.338;2023-01-06T00:58:35;11.20;97.40
2763;DHT22;1389;51.490;7.338;2023-01-06T01:01:05;11.20;97.40
2763;DHT22;1389;51.490;7.338;2023-01-06T01:03:33;11.30;97.40
2763;DHT22;1389;51.490;7.338;2023-01-06T01:06:04;11.30;96.90
2763;DHT22;1389;51.490;7.338;2023-01-06T01:08:31;11.30;96.70
2763;DHT22;1389;51.490;7.338;2023-01-06T01:11:08;11.30;96.80
2763;DHT22;1389;51.490;7.338;2023-01-06T01:13:35;11.30;96.70
2763;DHT22;1389;51.490;7.338;2023-01-06T01:16:08;11.20;96.80
2763;DHT22;1389;51.490;7.338;2023-01-06T01:18:35;11.20;97.00
2763;DHT22;1389;51.490;7.338;2023-01-06T01:21:01;11.30;96.40
2763;DHT22;1389;51.490;7.338;2023-01-06T01:23:27;11.30;96.70
2763;DHT22;1389;51.490;7.338;2023-01-06T01:25:54;11.30;96.70
2763;DHT22;1389;51.490;7.338;2023-01-06T01:28:21;11.30;96.10
2763;DHT22;1389;51.490;7.338;2023-01-06T01:30:47;11.30;96.30
2763;DHT22;1389;51.490;7.338;2023-01-06T01:33:13;11.30;96.50
2763;DHT22;1389;51.490;7.338;2023-01-06T01:35:39;11.30;96.20
2763;DHT22;1389;51.490;7.338;2023-01-06T01:38:05;11.30;96.10
2763;DHT22;1389;51.490;7.338;2023-01-06T01:40:31;11.40;95.60
2763;DHT22;1389;51.490;7.338;2023-01-06T01:42:57;11.40;95.60
2763;DHT22;1389;51.490;7.338;2023-01-06T01:45:26;11.30;95.60
2763;DHT22;1389;51.490;7.338;2023-01-06T01:47:58;11.30;95.70
2763;DHT22;1389;51.490;7.338;2023-01-06T01:50:30;11.30;95.60
2763;DHT22;1389;51.490;7.338;2023-01-06T01:53:12;11.30;95.70
2763;DHT22;1389;51.490;7.338;2023-01-06T01:55:39;11.30;95.60
2763;DHT22;1389;51.490;7.338;2023-01-06T01:58:15;11.30;95.50
2763;DHT22;1389;51.490;7.338;2023-01-06T02:00:43;11.30;95.20
2763;DHT22;1389;51.490;7.338;2023-01-06T02:03:11;11.30;95.10
2763;DHT22;1389;51.490;7.338;2023-01-06T02:05:40;11.30;95.10
2763;DHT22;1389;51.490;7.338;2023-01-06T02:08:32;11.30;95.00
2763;DHT22;1389;51.490;7.338;2023-01-06T02:11:00;11.30;94.70
2763;DHT22;1389;51.490;7.338;2023-01-06T02:13:26;11.30;94.90
2763;DHT22;1389;51.490;7.338;2023-01-06T02:16:22;11.30;95.10
2763;DHT22;1389;51.490;7.338;2023-01-06T02:27:07;11.30;94.80
2763;DHT22;1389;51.490;7.338;2023-01-06T02:32:53;11.20;94.90
2763;DHT22;1389;51.490;7.338;2023-01-06T02:35:51;11.30;95.10
2763;DHT22;1389;51.490;7.338;2023-01-06T02:38:33;11.30;95.00
2763;DHT22;1389;51.490;7.338;2023-01-06T02:41:11;11.30;95.10
2763;DHT22;1389;51.490;7.338;2023-01-06T02:44:01;11.30;95.00
2763;DHT22;1389;51.490;7.338;2023-01-06T02:52:12;11.30;94.10
2763;DHT22;1389;51.490;7.338;2023-01-06T02:54:51;11.30;94.20
2763;DHT22;1389;51.490;7.338;2023-01-06T02:57:49;11.30;94.10
2763;DHT22;1389;51.490;7.338;2023-01-06T03:00:29;11.40;93.40
2763;DHT22;1389;51.490;7.338;2023-01-06T03:03:00;11.30;93.30
2763;DHT22;1389;51.490;7.338;2023-01-06T03:05:32;11.30;93.40
2763;DHT22;1389;51.490;7.338;2023-01-06T03:08:01;11.30;93.50
2763;DHT22;1389;51.490;7.338;2023-01-06T03:10:29;11.30;93.20
2763;DHT22;1389;51.490;7.338;2023-01-06T03:13:06;11.30;92.70
2763;DHT22;1389;51.490;7.338;2023-01-06T03:15:34;11.30;92.90
2763;DHT22;1389;51.490;7.338;2023-01-06T03:18:01;11.30;93.00
2763;DHT22;1389;51.490;7.338;2023-01-06T03:20:27;11.30;93.00
2763;DHT22;1389;51.490;7.338;2023-01-06T03:22:53;11.30;92.80
2763;DHT22;1389;51.490;7.338;2023-01-06T03:25:20;11.30;92.70
2763;DHT22;1389;51.490;7.338;2023-01-06T03:27:46;11.30;92.70
2763;DHT22;1389;51.490;7.338;2023-01-06T03:30:13;11.40;92.20
2763;DHT22;1389;51.490;7.338;2023-01-06T03:32:58;11.30;92.30
2763;DHT22;1389;51.490;7.338;2023-01-06T03:36:16;11.40;92.30
2763;DHT22;1389;51.490;7.338;2023-01-06T03:38:48;11.30;92.20
2763;DHT22;1389;51.490;7.338;2023-01-06T03:43:59;11.30;92.50
2763;DHT22;1389;51.490;7.338;2023-01-06T03:46:37;11.30;92.00
2763;DHT22;1389;51.490;7.338;2023-01-06T03:52:02;11.30;92.00
2763;DHT22;1389;51.490;7.338;2023-01-06T03:54:46;11.30;92.10
2763;DHT22;1389;51.490;7.338;2023-01-06T03:57:21;11.40;91.50
2763;DHT22;1389;51.490;7.338;2023-01-06T04:00:03;11.40;91.20
2763;DHT22;1389;51.490;7.338;2023-01-06T04:02:29;11.30;91.50
2763;DHT22;1389;51.490;7.338;2023-01-06T04:05:10;11.40;91.80
2763;DHT22;1389;51.490;7.338;2023-01-06T04:07:37;11.30;91.80
2763;DHT22;1389;51.490;7.338;2023-01-06T04:10:05;11.30;91.60
2763;DHT22;1389;51.490;7.338;2023-01-06T04:12:31;11.30;91.20
2763;DHT22;1389;51.490;7.338;2023-01-06T04:15:24;11.30;91.00
2763;DHT22;1389;51.490;7.338;2023-01-06T04:17:51;11.30;90.40
2763;DHT22;1389;51.490;7.338;2023-01-06T04:20:29;11.30;90.40
2763;DHT22;1389;51.490;7.338;2023-01-06T04:22:56;11.30;89.80
2763;DHT22;1389;51.490;7.338;2023-01-06T04:25:22;11.30;89.90
2763;DHT22;1389;51.490;7.338;2023-01-06T04:27:49;11.30;90.00
2763;DHT22;1389;51.490;7.338;2023-01-06T04:30:15;11.30;89.30
2763;DHT22;1389;51.490;7.338;2023-01-06T04:32:42;11.30;89.90
2763;DHT22;1389;51.490;7.338;2023-01-06T04:35:08;11.30;89.90
2763;DHT22;1389;51.490;7.338;2023-01-06T04:37:35;11.30;89.80
2763;DHT22;1389;51.490;7.338;2023-01-06T04:40:02;11.30;89.20
2763;DHT22;1389;51.490;7.338;2023-01-06T04:42:28;11.30;89.70
2763;DHT22;1389;51.490;7.338;2023-01-06T04:45:14;11.30;89.70
2763;DHT22;1389;51.490;7.338;2023-01-06T04:47:40;11.30;90.00
2763;DHT22;1389;51.490;7.338;2023-01-06T04:50:06;11.30;89.90
2763;DHT22;1389;51.490;7.338;2023-01-06T04:52:32;11.30;89.80
2763;DHT22;1389;51.490;7.338;2023-01-06T04:54:58;11.30;89.90
2763;DHT22;1389;51.490;7.338;2023-01-06T04:57:24;11.30;89.80
2763;DHT22;1389;51.490;7.338;2023-01-06T04:59:50;11.30;89.70
2763;DHT22;1389;51.490;7.338;2023-01-06T05:02:16;11.30;89.70
2763;DHT22;1389;51.490;7.338;2023-01-06T05:04:43;11.30;89.70
2763;DHT22;1389;51.490;7.338;2023-01-06T05:07:09;11.30;89.80
2763;DHT22;1389;51.490;7.338;2023-01-06T05:09:35;11.40;89.70
2763;DHT22;1389;51.490;7.338;2023-01-06T05:12:01;11.40;89.50
2763;DHT22;1389;51.490;7.338;2023-01-06T05:14:27;11.40;89.70
2763;DHT22;1389;51.490;7.338;2023-01-06T05:16:53;11.30;89.70
2763;DHT22;1389;51.490;7.338;2023-01-06T05:19:19;11.30;89.10
2763;DHT22;1389;51.490;7.338;2023-01-06T05:21:45;11.30;89.50
2763;DHT22;1389;51.490;7.338;2023-01-06T05:24:11;11.30;89.50
2763;DHT22;1389;51.490;7.338;2023-01-06T05:26:37;11.30;89.80
2763;DHT22;1389;51.490;7.338;2023-01-06T05:29:03;11.40;89.60
2763;DHT22;1389;51.490;7.338;2023-01-06T05:31:29;11.30;89.80
2763;DHT22;1389;51.490;7.338;2023-01-06T05:33:55;11.40;89.20
2763;DHT22;1389;51.490;7.338;2023-01-06T05:36:21;11.30;89.50
2763;DHT22;1389;51.490;7.338;2023-01-06T05:38:53;11.40;89.10
2763;DHT22;1389;51.490;7.338;2023-01-06T05:41:20;11.30;89.10
2763;DHT22;1389;51.490;7.338;2023-01-06T05:43:46;11.40;89.50
2763;DHT22;1389;51.490;7.338;2023-01-06T05:46:12;11.40;89.30
2763;DHT22;1389;51.490;7.338;2023-01-06T05:48:38;11.40;88.60
2763;DHT22;1389;51.490;7.338;2023-01-06T05:51:07;11.40;88.80
2763;DHT22;1389;51.490;7.338;2023-01-06T05:53:35;11.40;88.70
2763;DHT22;1389;51.490;7.338;2023-01-06T05:56:03;11.40;88.60
2763;DHT22;1389;51.490;7.338;2023-01-06T05:58:29;11.40;89.10
2763;DHT22;1389;51.490;7.338;2023-01-06T06:00:59;11.40;88.50
2763;DHT22;1389;51.490;7.338;2023-01-06T06:03:25;11.40;88.90
2763;DHT22;1389;51.490;7.338;2023-01-06T06:05:51;11.40;89.00
2763;DHT22;1389;51.490;7.338;2023-01-06T06:08:17;11.40;88.50
2763;DHT22;1389;51.490;7.338;2023-01-06T06:10:43;11.40;88.30
2763;DHT22;1389;51.490;7.338;2023-01-06T06:13:09;11.50;88.20
2763;DHT22;1389;51.490;7.338;2023-01-06T06:15:35;11.40;88.80
2763;DHT22;1389;51.490;7.338;2023-01-06T06:18:02;11.40;88.50
2763;DHT22;1389;51.490;7.338;2023-01-06T06:20:28;11.40;88.60
2763;DHT22;1389;51.490;7.338;2023-01-06T06:22:54;11.40;89.00
2763;DHT22;1389;51.490;7.338;2023-01-06T06:25:20;11.40;89.20
2763;DHT22;1389;51.490;7.338;2023-01-06T06:27:46;11.40;89.50
2763;DHT22;1389;51.490;7.338;2023-01-06T06:30:12;11.40;88.20
2763;DHT22;1389;51.490;7.338;2023-01-06T06:32:38;11.40;88.30
2763;DHT22;1389;51.490;7.338;2023-01-06T06:35:05;11.40;88.40
2763;DHT22;1389;51.490;7.338;2023-01-06T06:37:32;11.40;88.50
2763;DHT22;1389;51.490;7.338;2023-01-06T06:39:58;11.40;88.20
2763;DHT22;1389;51.490;7.338;2023-01-06T06:42:24;11.40;88.30
2763;DHT22;1389;51.490;7.338;2023-01-06T06:44:50;11.40;88.10
2763;DHT22;1389;51.490;7.338;2023-01-06T06:47:16;11.40;88.00
2763;DHT22;1389;51.490;7.338;2023-01-06T06:49:42;11.40;88.70
2763;DHT22;1389;51.490;7.338;2023-01-06T06:52:08;11.40;88.60
2763;DHT22;1389;51.490;7.338;2023-01-06T06:54:34;11.40;88.50
2763;DHT22;1389;51.490;7.338;2023-01-06T06:57:00;11.40;88.90
2763;DHT22;1389;51.490;7.338;2023-01-06T06:59:26;11.40;89.10
2763;DHT22;1389;51.490;7.338;2023-01-06T07:01:52;11.40;88.60
2763;DHT22;1389;51.490;7.338;2023-01-06T07:04:18;11.40;88.50
2763;DHT22;1389;51.490;7.338;2023-01-06T07:06:44;11.40;88.50
2763;DHT22;1389;51.490;7.338;2023-01-06T07:09:10;11.40;88.70
2763;DHT22;1389;51.490;7.338;2023-01-06T07:11:36;11.40;88.90
2763;DHT22;1389;51.490;7.338;2023-01-06T07:14:02;11.40;88.60
2763;DHT22;1389;51.490;7.338;2023-01-06T07:16:28;11.40;89.00
2763;DHT22;1389;51.490;7.338;2023-01-06T07:18:55;11.30;89.10
2763;DHT22;1389;51.490;7.338;2023-01-06T07:21:21;11.40;89.10
2763;DHT22;1389;51.490;7.338;2023-01-06T07:23:47;11.40;89.30
2763;DHT22;1389;51.490;7.338;2023-01-06T07:26:13;11.40;89.60
2763;DHT22;1389;51.490;7.338;2023-01-06T07:28:40;11.40;89.60
2763;DHT22;1389;51.490;7.338;2023-01-06T07:31:06;11.40;89.10
2763;DHT22;1389;51.490;7.338;2023-01-06T07:33:32;11.40;88.90
2763;DHT22;1389;51.490;7.338;2023-01-06T07:35:58;11.30;89.10
2763;DHT22;1389;51.490;7.338;2023-01-06T07:38:24;11.40;89.20
2763;DHT22;1389;51.490;7.338;2023-01-06T07:40:51;11.30;89.30
2763;DHT22;1389;51.490;7.338;2023-01-06T07:43:17;11.40;89.30
2763;DHT22;1389;51.490;7.338;2023-01-06T07:45:47;11.40;88.80
2763;DHT22;1389;51.490;7.338;2023-01-06T07:48:14;11.40;88.70
2763;DHT22;1389;51.490;7.338;2023-01-06T07:50:41;11.40;88.90
2763;DHT22;1389;51.490;7.338;2023-01-06T07:53:08;11.40;89.00
2763;DHT22;1389;51.490;7.338;2023-01-06T07:55:34;11.40;88.90
2763;DHT22;1389;51.490;7.338;2023-01-06T07:58:06;11.40;88.70
2763;DHT22;1389;51.490;7.338;2023-01-06T08:00:32;11.40;89.00
2763;DHT22;1389;51.490;7.338;2023-01-06T08:03:03;11.50;88.40
2763;DHT22;1389;51.490;7.338;2023-01-06T08:05:29;11.50;88.00
2763;DHT22;1389;51.490;7.338;2023-01-06T08:07:56;11.60;88.10
2763;DHT22;1389;51.490;7.338;2023-01-06T08:10:22;11.50;88.40
2763;DHT22;1389;51.490;7.338;2023-01-06T08:12:48;11.60;88.30
2763;DHT22;1389;51.490;7.338;2023-01-06T08:15:14;11.60;87.70
2763;DHT22;1389;51.490;7.338;2023-01-06T08:17:40;11.60;88.00
2763;DHT22;1389;51.490;7.338;2023-01-06T08:20:07;11.60;88.10
2763;DHT22;1389;51.490;7.338;2023-01-06T08:22:33;11.60;87.90
2763;DHT22;1389;51.490;7.338;2023-01-06T08:24:59;11.60;87.70
2763;DHT22;1389;51.490;7.338;2023-01-06T08:27:26;11.60;88.00
2763;DHT22;1389;51.490;7.338;2023-01-06T08:29:52;11.60;87.80
2763;DHT22;1389;51.490;7.338;2023-01-06T08:32:20;11.60;88.10
2763;DHT22;1389;51.490;7.338;2023-01-06T08:34:46;11.60;88.00
2763;DHT22;1389;51.490;7.338;2023-01-06T08:37:13;11.70;87.80
2763;DHT22;1389;51.490;7.338;2023-01-06T08:39:39;11.70;87.70
2763;DHT22;1389;51.490;7.338;2023-01-06T08:42:05;11.70;88.20
2763;DHT22;1389;51.490;7.338;2023-01-06T08:44:31;11.70;87.80
2763;DHT22;1389;51.490;7.338;2023-01-06T08:46:58;11.70;87.90
2763;DHT22;1389;51.490;7.338;2023-01-06T08:49:24;11.70;88.20
2763;DHT22;1389;51.490;7.338;2023-01-06T08:51:50;11.70;88.70
2763;DHT22;1389;51.490;7.338;2023-01-06T08:54:16;11.70;88.60
2763;DHT22;1389;51.490;7.338;2023-01-06T08:56:42;11.60;89.10
2763;DHT22;1389;51.490;7.338;2023-01-06T08:59:13;11.60;89.50
2763;DHT22;1389;51.490;7.338;2023-01-06T09:01:40;11.60;90.00
2763;DHT22;1389;51.490;7.338;2023-01-06T09:04:08;11.60;90.20
2763;DHT22;1389;51.490;7.338;2023-01-06T09:06:35;11.50;90.40
2763;DHT22;1389;51.490;7.338;2023-01-06T09:09:03;11.50;90.70
2763;DHT22;1389;51.490;7.338;2023-01-06T09:11:29;11.50;90.60
2763;DHT22;1389;51.490;7.338;2023-01-06T09:13:56;11.60;90.20
2763;DHT22;1389;51.490;7.338;2023-01-06T09:16:22;11.60;90.50
2763;DHT22;1389;51.490;7.338;2023-01-06T09:18:48;11.60;90.50
2763;DHT22;1389;51.490;7.338;2023-01-06T09:21:16;11.60;90.60
2763;DHT22;1389;51.490;7.338;2023-01-06T09:23:43;11.60;90.60
2763;DHT22;1389;51.490;7.338;2023-01-06T09:26:09;11.60;90.50
2763;DHT22;1389;51.490;7.338;2023-01-06T09:28:36;11.60;90.50
2763;DHT22;1389;51.490;7.338;2023-01-06T09:31:02;11.70;90.50
2763;DHT22;1389;51.490;7.338;2023-01-06T09:33:28;11.70;90.50
2763;DHT22;1389;51.490;7.338;2023-01-06T09:35:54;11.70;90.50
2763;DHT22;1389;51.490;7.338;2023-01-06T09:38:20;11.70;90.80
2763;DHT22;1389;51.490;7.338;2023-01-06T09:46:09;11.60;90.90
2763;DHT22;1389;51.490;7.338;2023-01-06T09:48:43;11.70;91.10
2763;DHT22;1389;51.490;7.338;2023-01-06T09:51:14;11.60;91.10
2763;DHT22;1389;51.490;7.338;2023-01-06T09:54:14;11.70;91.20
2763;DHT22;1389;51.490;7.338;2023-01-06T09:56:43;11.70;91.80
2763;DHT22;1389;51.490;7.338;2023-01-06T09:59:20;11.60;92.40
2763;DHT22;1389;51.490;7.338;2023-01-06T10:01:49;11.60;92.70
2763;DHT22;1389;51.490;7.338;2023-01-06T10:04:25;11.60;93.00
2763;DHT22;1389;51.490;7.338;2023-01-06T10:12:45;11.50;94.00
2763;DHT22;1389;51.490;7.338;2023-01-06T10:15:30;11.60;94.20
2763;DHT22;1389;51.490;7.338;2023-01-06T10:20:57;11.40;94.80
2763;DHT22;1389;51.490;7.338;2023-01-06T10:26:31;11.40;95.10
2763;DHT22;1389;51.490;7.338;2023-01-06T10:29:12;11.40;95.20
2763;DHT22;1389;51.490;7.338;2023-01-06T10:31:42;11.40;95.40
2763;DHT22;1389;51.490;7.338;2023-01-06T10:34:23;11.40;95.70
2763;DHT22;1389;51.490;7.338;2023-01-06T10:37:08;11.50;95.20
2763;DHT22;1389;51.490;7.338;2023-01-06T10:39:37;11.50;95.50
2763;DHT22;1389;51.490;7.338;2023-01-06T10:42:22;11.50;95.40
2763;DHT22;1389;51.490;7.338;2023-01-06T10:45:11;11.50;95.50
2763;DHT22;1389;51.490;7.338;2023-01-06T10:47:39;11.40;95.80
2763;DHT22;1389;51.490;7.338;2023-01-06T10:50:10;11.50;95.40
2763;DHT22;1389;51.490;7.338;2023-01-06T10:52:37;11.40;95.40
2763;DHT22;1389;51.490;7.338;2023-01-06T10:55:04;11.40;95.90
2763;DHT22;1389;51.490;7.338;2023-01-06T10:57:38;11.40;95.80
2763;DHT22;1389;51.490;7.338;2023-01-06T11:00:21;11.40;96.20
2763;DHT22;1389;51.490;7.338;2023-01-06T11:02:50;11.40;96.40
2763;DHT22;1389;51.490;7.338;2023-01-06T11:05:22;11.40;96.30
2763;DHT22;1389;51.490;7.338;2023-01-06T11:13:20;11.50;96.10
2763;DHT22;1389;51.490;7.338;2023-01-06T11:15:48;11.60;95.60
2763;DHT22;1389;51.490;7.338;2023-01-06T11:18:29;11.60;95.40
2763;DHT22;1389;51.490;7.338;2023-01-06T11:21:06;11.70;94.40
2763;DHT22;1389;51.490;7.338;2023-01-06T11:23:33;11.70;94.40
2763;DHT22;1389;51.490;7.338;2023-01-06T11:28:27;11.70;94.20
2763;DHT22;1389;51.490;7.338;2023-01-06T11:31:22;11.70;93.80
2763;DHT22;1389;51.490;7.338;2023-01-06T11:34:00;11.70;94.00
2763;DHT22;1389;51.490;7.338;2023-01-06T11:36:29;11.90;93.90
2763;DHT22;1389;51.490;7.338;2023-01-06T11:39:02;11.90;93.60
2763;DHT22;1389;51.490;7.338;2023-01-06T11:41:35;11.90;93.20
2763;DHT22;1389;51.490;7.338;2023-01-06T11:44:32;11.90;93.10
2763;DHT22;1389;51.490;7.338;2023-01-06T11:47:21;11.90;92.80
2763;DHT22;1389;51.490;7.338;2023-01-06T11:49:53;11.90;92.90
2763;DHT22;1389;51.490;7.338;2023-01-06T11:54:59;11.90;92.70
2763;DHT22;1389;51.490;7.338;2023-01-06T11:57:40;11.90;92.70
2763;DHT22;1389;51.490;7.338;2023-01-06T12:02:48;12.00;92.40
2763;DHT22;1389;51.490;7.338;2023-01-06T12:05:44;12.00;92.20
2763;DHT22;1389;51.490;7.338;2023-01-06T12:08:34;12.00;92.40
2763;DHT22;1389;51.490;7.338;2023-01-06T12:11:12;12.10;92.40
2763;DHT22;1389;51.490;7.338;2023-01-06T12:13:39;12.20;92.30
2763;DHT22;1389;51.490;7.338;2023-01-06T12:16:15;12.10;91.80
2763;DHT22;1389;51.490;7.338;2023-01-06T12:18:48;12.20;91.30
2763;DHT22;1389;51.490;7.338;2023-01-06T12:21:32;12.20;91.00
2763;DHT22;1389;51.490;7.338;2023-01-06T12:24:01;12.20;91.10
2763;DHT22;1389;51.490;7.338;2023-01-06T12:26:29;12.20;91.00
2763;DHT22;1389;51.490;7.338;2023-01-06T12:28:57;12.20;91.10
2763;DHT22;1389;51.490;7.338;2023-01-06T12:31:46;12.20;90.70
2763;DHT22;1389;51.490;7.338;2023-01-06T12:34:32;12.10;90.70
2763;DHT22;1389;51.490;7.338;2023-01-06T12:37:28;12.10;90.70
2763;DHT22;1389;51.490;7.338;2023-01-06T12:43:16;12.20;90.80
2763;DHT22;1389;51.490;7.338;2023-01-06T12:46:01;12.30;89.90
2763;DHT22;1389;51.490;7.338;2023-01-06T12:48:58;12.30;89.80
2763;DHT22;1389;51.490;7.338;2023-01-06T12:51:43;12.40;89.10
2763;DHT22;1389;51.490;7.338;2023-01-06T12:56:47;12.30;88.90
2763;DHT22;1389;51.490;7.338;2023-01-06T13:05:16;12.40;88.80
2763;DHT22;1389;51.490;7.338;2023-01-06T13:15:56;12.60;89.20
2763;DHT22;1389;51.490;7.338;2023-01-06T13:18:33;12.60;88.60
2763;DHT22;1389;51.490;7.338;2023-01-06T13:21:08;12.60;87.40
2763;DHT22;1389;51.490;7.338;2023-01-06T13:37:40;12.60;87.40
2763;DHT22;1389;51.490;7.338;2023-01-06T13:40:18;12.60;86.40
2763;DHT22;1389;51.490;7.338;2023-01-06T13:42:57;12.60;87.00
2763;DHT22;1389;51.490;7.338;2023-01-06T13:45:28;12.60;86.80
2763;DHT22;1389;51.490;7.338;2023-01-06T13:47:57;12.70;86.90
2763;DHT22;1389;51.490;7.338;2023-01-06T13:50:26;12.70;86.50
2763;DHT22;1389;51.490;7.338;2023-01-06T13:52:52;12.70;86.90
2763;DHT22;1389;51.490;7.338;2023-01-06T13:55:28;12.70;87.40
2763;DHT22;1389;51.490;7.338;2023-01-06T13:57:55;12.70;86.80
2763;DHT22;1389;51.490;7.338;2023-01-06T14:00:27;12.70;86.80
2763;DHT22;1389;51.490;7.338;2023-01-06T14:02:59;12.70;86.50
2763;DHT22;1389;51.490;7.338;2023-01-06T14:08:02;12.60;86.80
2763;DHT22;1389;51.490;7.338;2023-01-06T14:10:36;12.60;87.20
2763;DHT22;1389;51.490;7.338;2023-01-06T14:13:14;12.60;87.40
2763;DHT22;1389;51.490;7.338;2023-01-06T14:15:58;12.60;87.90
2763;DHT22;1389;51.490;7.338;2023-01-06T14:18:44;12.60;87.20
2763;DHT22;1389;51.490;7.338;2023-01-06T14:24:00;12.50;88.30
2763;DHT22;1389;51.490;7.338;2023-01-06T14:26:45;12.50;88.60
2763;DHT22;1389;51.490;7.338;2023-01-06T14:35:11;12.50;88.20
2763;DHT22;1389;51.490;7.338;2023-01-06T14:37:47;12.40;88.90
2763;DHT22;1389;51.490;7.338;2023-01-06T14:40:19;12.40;88.90
2763;DHT22;1389;51.490;7.338;2023-01-06T14:42:46;12.30;89.20
2763;DHT22;1389;51.490;7.338;2023-01-06T14:45:29;12.30;89.90
2763;DHT22;1389;51.490;7.338;2023-01-06T14:48:08;12.30;90.00
2763;DHT22;1389;51.490;7.338;2023-01-06T14:50:39;12.40;90.50
2763;DHT22;1389;51.490;7.338;2023-01-06T14:53:20;12.40;90.50
2763;DHT22;1389;51.490;7.338;2023-01-06T14:55:48;12.30;90.40
2763;DHT22;1389;51.490;7.338;2023-01-06T14:58:31;12.30;90.80
2763;DHT22;1389;51.490;7.338;2023-01-06T15:00:58;12.30;91.00
2763;DHT22;1389;51.490;7.338;2023-01-06T15:03:26;12.30;91.30
2763;DHT22;1389;51.490;7.338;2023-01-06T15:06:28;12.30;91.60
2763;DHT22;1389;51.490;7.338;2023-01-06T15:09:10;12.30;91.80
2763;DHT22;1389;51.490;7.338;2023-01-06T15:11:40;12.20;92.00
2763;DHT22;1389;51.490;7.338;2023-01-06T15:14:29;12.10;92.50
2763;DHT22;1389;51.490;7.338;2023-01-06T15:16:58;12.00;93.10
2763;DHT22;1389;51.490;7.338;2023-01-06T15:19:25;12.00;93.50
2763;DHT22;1389;51.490;7.338;2023-01-06T15:21:52;11.90;93.90
2763;DHT22;1389;51.490;7.338;2023-01-06T15:24:27;11.90;94.20
2763;DHT22;1389;51.490;7.338;2023-01-06T15:27:03;11.90;94.40
2763;DHT22;1389;51.490;7.338;2023-01-06T15:29:29;12.00;94.50
2763;DHT22;1389;51.490;7.338;2023-01-06T15:31:56;11.90;94.40
2763;DHT22;1389;51.490;7.338;2023-01-06T15:34:38;11.90;94.40
2763;DHT22;1389;51.490;7.338;2023-01-06T15:37:08;11.90;94.60
2763;DHT22;1389;51.490;7.338;2023-01-06T15:39:40;11.80;94.70
2763;DHT22;1389;51.490;7.338;2023-01-06T15:42:07;11.80;94.80
2763;DHT22;1389;51.490;7.338;2023-01-06T15:44:36;11.80;94.80
2763;DHT22;1389;51.490;7.338;2023-01-06T15:49:49;11.80;94.90
2763;DHT22;1389;51.490;7.338;2023-01-06T15:52:31;11.80;94.80
2763;DHT22;1389;51.490;7.338;2023-01-06T15:55:00;11.70;94.80
2763;DHT22;1389;51.490;7.338;2023-01-06T15:57:30;11.80;94.90
2763;DHT22;1389;51.490;7.338;2023-01-06T16:00:03;11.80;94.70
2763;DHT22;1389;51.490;7.338;2023-01-06T16:02:31;11.80;94.50
2763;DHT22;1389;51.490;7.338;2023-01-06T16:04:58;11.80;94.40
2763;DHT22;1389;51.490;7.338;2023-01-06T16:07:35;11.80;94.60
2763;DHT22;1389;51.490;7.338;2023-01-06T16:10:34;11.80;94.50
2763;DHT22;1389;51.490;7.338;2023-01-06T16:13:04;11.80;94.50
2763;DHT22;1389;51.490;7.338;2023-01-06T16:15:39;11.80;94.60
2763;DHT22;1389;51.490;7.338;2023-01-06T16:18:08;11.80;94.30
2763;DHT22;1389;51.490;7.338;2023-01-06T16:20:35;11.80;94.30
2763;DHT22;1389;51.490;7.338;2023-01-06T16:23:01;11.80;94.20
2763;DHT22;1389;51.490;7.338;2023-01-06T16:25:32;11.80;94.40
2763;DHT22;1389;51.490;7.338;2023-01-06T16:28:00;11.80;94.40
2763;DHT22;1389;51.490;7.338;2023-01-06T16:30:32;11.80;94.50
2763;DHT22;1389;51.490;7.338;2023-01-06T16:33:00;11.80;94.60
2763;DHT22;1389;51.490;7.338;2023-01-06T16:35:29;11.80;94.60
2763;DHT22;1389;51.490;7.338;2023-01-06T16:37:55;11.80;94.50
2763;DHT22;1389;51.490;7.338;2023-01-06T16:40:24;11.80;94.60
2763;DHT22;1389;51.490;7.338;2023-01-06T16:42:58;11.80;94.70
2763;DHT22;1389;51.490;7.338;2023-01-06T16:47:54;11.70;95.20
2763;DHT22;1389;51.490;7.338;2023-01-06T16:50:26;11.60;95.50
2763;DHT22;1389;51.490;7.338;2023-01-06T16:53:16;11.60;95.60
2763;DHT22;1389;51.490;7.338;2023-01-06T16:55:43;11.60;95.70
2763;DHT22;1389;51.490;7.338;2023-01-06T16:58:20;11.70;95.80
2763;DHT22;1389;51.490;7.338;2023-01-06T17:00:48;11.70;95.70
2763;DHT22;1389;51.490;7.338;2023-01-06T17:03:23;11.70;96.10
2763;DHT22;1389;51.490;7.338;2023-01-06T17:05:51;11.70;95.70
2763;DHT22;1389;51.490;7.338;2023-01-06T17:08:32;11.70;95.90
2763;DHT22;1389;51.490;7.338;2023-01-06T17:11:01;11.70;96.00
2763;DHT22;1389;51.490;7.338;2023-01-06T17:13:31;11.70;95.90
2763;DHT22;1389;51.490;7.338;2023-01-06T17:18:30;11.70;96.10
2763;DHT22;1389;51.490;7.338;2023-01-06T17:21:11;11.70;95.70
2763;DHT22;1389;51.490;7.338;2023-01-06T17:26:34;11.70;95.70
2763;DHT22;1389;51.490;7.338;2023-01-06T17:29:01;11.70;95.90
2763;DHT22;1389;51.490;7.338;2023-01-06T17:31:39;11.80;95.40
2763;DHT22;1389;51.490;7.338;2023-01-06T17:34:33;11.80;95.30
2763;DHT22;1389;51.490;7.338;2023-01-06T17:37:09;11.80;95.00
2763;DHT22;1389;51.490;7.338;2023-01-06T17:39:40;11.80;95.10
2763;DHT22;1389;51.490;7.338;2023-01-06T17:44:44;11.80;95.20
2763;DHT22;1389;51.490;7.338;2023-01-06T17:49:36;11.70;95.30
2763;DHT22;1389;51.490;7.338;2023-01-06T17:52:30;11.70;95.30
2763;DHT22;1389;51.490;7.338;2023-01-06T17:57:51;11.70;95.30
2763;DHT22;1389;51.490;7.338;2023-01-06T18:00:46;11.70;95.20
2763;DHT22;1389;51.490;7.338;2023-01-06T18:03:26;11.70;95.10
2763;DHT22;1389;51.490;7.338;2023-01-06T18:06:18;11.70;95.20
2763;DHT22;1389;51.490;7.338;2023-01-06T18:08:47;11.70;95.40
2763;DHT22;1389;51.490;7.338;2023-01-06T18:11:24;11.70;95.40
2763;DHT22;1389;51.490;7.338;2023-01-06T18:13:50;11.70;95.30
2763;DHT22;1389;51.490;7.338;2023-01-06T18:18:46;11.80;94.90
2763;DHT22;1389;51.490;7.338;2023-01-06T18:23:45;11.80;95.20
2763;DHT22;1389;51.490;7.338;2023-01-06T18:28:58;11.80;94.80
2763;DHT22;1389;51.490;7.338;2023-01-06T18:31:26;11.80;95.00
2763;DHT22;1389;51.490;7.338;2023-01-06T18:33:54;11.80;95.10